Golar Kelvin — V7DE2 — position and weather

sailwx.info

Track history (hours):
 
Tides and Currents Weather Stations Pressure Air Temp Water Temp Dewpoint Dewpoint Depression Visibility Wind Speed Wind Dir Waves Ship Positions

Golar Kelvin

Last reported at 2018-Jul-15 23:14 UTC. Time now 2018-Jul-19 23:02 UTC.
Position S 34°42' E 018°28'.

Length 289 m; draft 11.6 m.

Type: Ship (hazmat cat D). MMSI: 538005374.

Date/timePositionNaut miles runAvg speedWind from/ knotsBaromVisibWave heightAir tempDewpointWater temp
2018-Jul-15 23:14S 34°42' E 018°28'514.2
2018-Jul-15 22:55S 34°40' E 018°23'614.2
2018-Jul-15 22:28S 34°36' E 018°17'714.3
2018-Jul-15 21:58S 34°33' E 018°09'714.3
2018-Jul-15 21:30S 34°29' E 018°02'714.4
2018-Jul-15 21:00S 34°26' E 017°55'714.6
2018-Jul-15 20:30S 34°22' E 017°47'714.8
2018-Jul-15 20:01S 34°19' E 017°39'815.0
2018-Jul-15 19:30S 34°15' E 017°31'  
2018-Jul-11 17:37S 12°23' E 008°19'20816.1
2018-Jul-11 04:40S 08°58' E 007°43'216.2
2018-Jul-11 04:30S 08°56' E 007°42'  
Track history (hours):
 
Tides and Currents Weather Stations Pressure Air Temp Water Temp Dewpoint Dewpoint Depression Visibility Wind Speed Wind Dir Waves Ship Positions

Golar Kelvin

Last reported at 2018-Jul-15 23:14 UTC. Time now 2018-Jul-19 23:02 UTC.
Position S 34°42' E 018°28'.

Length 289 m; draft 11.6 m.

Type: Ship (hazmat cat D). MMSI: 538005374.

Date/timePositionNaut miles runAvg speedWind from/ knotsBaromVisibWave heightAir tempDewpointWater temp
2018-Jul-15 23:14S 34°42' E 018°28'514.2
2018-Jul-15 22:55S 34°40' E 018°23'614.2
2018-Jul-15 22:28S 34°36' E 018°17'714.3
2018-Jul-15 21:58S 34°33' E 018°09'714.3
2018-Jul-15 21:30S 34°29' E 018°02'714.4
2018-Jul-15 21:00S 34°26' E 017°55'714.6
2018-Jul-15 20:30S 34°22' E 017°47'714.8
2018-Jul-15 20:01S 34°19' E 017°39'815.0
2018-Jul-15 19:30S 34°15' E 017°31'  
2018-Jul-11 17:37S 12°23' E 008°19'20816.1
2018-Jul-11 04:40S 08°58' E 007°43'216.2
2018-Jul-11 04:30S 08°56' E 007°42'  

Dump ship's entire track history